Aviation Digital Data Service (ADDS)

Output produced by METARs form (1902 UTC 24 April 2017)
found at http://aviationweather.gov/adds/metars/
 
KALB 241739Z 2418/2518 05006KT P6SM SCT250 
     FM250600 06004KT P6SM BKN100 
     PROB30 2509/2512 -RA OVC050 
     FM251200 08006KT 6SM -RA BR OVC050 
     FM251500 06009KT 3SM -RA BR OVC025